Time;durP1;ratioP1;P1;durP2;ratioP2;P2;SDS_P1;SDS_P2;PMS_P1;PMS_P2;Temp;Humidity;BMP_temperature;BMP_pressure;BME280_temperature;BME280_humidity;BME280_pressure;Samples;Min_cycle;Max_cycle;Signal;HPM_P1;HPM_P2
2020/12/10 00:01:12;;;;;;;3.55;2.22;;;23.00;58.70;;;;;;5087264;28;20550;-66
2020/12/10 00:03:40;;;;;;;5.82;1.58;;;23.00;58.70;;;;;;5084545;28;20063;-67
2020/12/10 00:06:07;;;;;;;5.53;2.10;;;23.10;58.80;;;;;;5086830;28;20018;-65
2020/12/10 00:08:34;;;;;;;5.15;2.55;;;23.10;58.80;;;;;;5085657;28;20485;-64
2020/12/10 00:11:01;;;;;;;3.65;3.22;;;23.10;58.80;;;;;;5086667;28;20111;-66
2020/12/10 00:13:28;;;;;;;4.25;3.95;;;23.10;58.80;;;;;;5084290;28;20430;-65
2020/12/10 00:15:55;;;;;;;2.67;1.67;;;23.20;58.80;;;;;;5085377;28;20396;-64
2020/12/10 00:18:22;;;;;;;4.18;3.78;;;23.30;58.70;;;;;;5086550;28;20036;-68
2020/12/10 00:20:49;;;;;;;3.75;3.03;;;23.30;58.60;;;;;;5086195;28;20189;-67
2020/12/10 00:23:16;;;;;;;2.60;1.83;;;23.30;58.60;;;;;;5082847;28;20036;-64
2020/12/10 00:25:42;;;;;;;3.50;1.85;;;23.30;58.70;;;;;;5085327;28;20338;-63
2020/12/10 00:28:09;;;;;;;3.92;1.85;;;23.40;58.40;;;;;;5087466;28;20502;-64
2020/12/10 00:30:36;;;;;;;2.80;2.33;;;23.40;58.60;;;;;;5084855;28;20040;-65
2020/12/10 00:33:03;;;;;;;5.43;4.40;;;23.50;58.60;;;;;;5086518;28;20271;-64
2020/12/10 00:35:30;;;;;;;6.93;6.53;;;23.50;58.70;;;;;;5084426;28;20073;-64
2020/12/10 00:37:57;;;;;;;4.93;3.97;;;23.60;58.50;;;;;;5064518;28;20656;-63
2020/12/10 00:40:24;;;;;;;6.05;3.85;;;23.60;57.10;;;;;;5083319;28;20020;-62
2020/12/10 00:42:52;;;;;;;4.97;4.40;;;23.60;57.70;;;;;;5086563;28;20020;-65
2020/12/10 00:45:19;;;;;;;3.50;1.73;;;23.60;57.60;;;;;;5084906;28;20047;-64
2020/12/10 00:47:46;;;;;;;4.85;3.10;;;23.60;57.80;;;;;;5084813;28;20027;-64
2020/12/10 00:50:13;;;;;;;5.03;1.45;;;23.60;57.80;;;;;;5080691;28;20032;-64
2020/12/10 00:52:40;;;;;;;6.78;6.05;;;23.70;57.60;;;;;;5082993;28;20024;-64
2020/12/10 00:55:07;;;;;;;3.60;1.40;;;23.70;57.60;;;;;;5083537;28;20073;-64
2020/12/10 00:57:34;;;;;;;1.95;1.00;;;23.80;57.50;;;;;;5066605;28;20032;-63
2020/12/10 01:00:01;;;;;;;4.00;1.52;;;23.80;57.50;;;;;;5083938;28;20032;-63
2020/12/10 01:02:28;;;;;;;1.65;1.00;;;23.80;57.50;;;;;;5080766;28;20035;-64
2020/12/10 01:04:55;;;;;;;6.10;1.90;;;23.90;57.50;;;;;;5082234;28;20097;-66
2020/12/10 01:07:22;;;;;;;5.88;1.48;;;23.90;55.30;;;;;;5082461;28;20032;-66
2020/12/10 01:09:49;;;;;;;3.38;1.60;;;23.70;54.50;;;;;;5086390;28;20044;-66
2020/12/10 01:12:16;;;;;;;6.30;1.58;;;23.50;54.40;;;;;;5084571;28;20154;-65
2020/12/10 01:14:42;;;;;;;4.93;1.83;;;23.40;54.40;;;;;;5085931;28;20039;-65
2020/12/10 01:17:09;;;;;;;3.17;1.83;;;23.30;54.40;;;;;;5083445;28;20024;-64
2020/12/10 01:19:36;;;;;;;7.10;2.75;;;23.20;54.30;;;;;;5085249;28;20031;-67
2020/12/10 01:22:04;;;;;;;6.00;1.88;;;23.10;54.00;;;;;;5083219;28;20086;-67
2020/12/10 01:24:31;;;;;;;6.93;1.60;;;23.10;54.00;;;;;;5085625;28;20081;-65
2020/12/10 01:26:57;;;;;;;3.55;1.50;;;23.00;54.10;;;;;;5084955;28;20405;-66
2020/12/10 01:29:25;;;;;;;5.47;1.40;;;23.00;54.10;;;;;;5087302;28;20099;-66
2020/12/10 01:31:52;;;;;;;5.13;1.90;;;22.90;53.90;;;;;;5080131;28;20570;-66
2020/12/10 01:34:22;;;;;;;6.82;1.88;;;22.90;54.00;;;;;;5080510;28;20051;-66
2020/12/10 01:36:49;;;;;;;6.32;1.52;;;22.80;54.10;;;;;;5082734;28;20389;-65
2020/12/10 01:39:16;;;;;;;6.15;1.65;;;22.80;54.20;;;;;;5085301;28;20032;-66
2020/12/10 01:41:43;;;;;;;3.72;1.30;;;22.80;54.10;;;;;;5084751;28;20095;-65
2020/12/10 01:44:14;;;;;;;5.40;2.00;;;22.70;54.20;;;;;;5077854;28;20020;-63
2020/12/10 01:46:43;;;;;;;6.70;1.75;;;22.70;54.40;;;;;;5065980;28;20040;-65
2020/12/10 01:49:11;;;;;;;3.63;1.52;;;22.80;54.40;;;;;;5083542;28;20105;-63
2020/12/10 01:51:38;;;;;;;4.53;1.35;;;22.80;54.40;;;;;;5063982;28;20062;-65
2020/12/10 01:54:09;;;;;;;7.72;2.25;;;22.80;54.40;;;;;;5083940;28;20054;-65
2020/12/10 01:56:36;;;;;;;6.65;2.08;;;22.80;54.30;;;;;;5084652;28;20130;-65
2020/12/10 01:59:05;;;;;;;7.72;2.13;;;22.70;54.20;;;;;;5064247;28;20032;-69
2020/12/10 02:01:33;;;;;;;5.82;2.55;;;22.80;54.40;;;;;;5086193;28;20089;-66
2020/12/10 02:04:01;;;;;;;6.55;1.90;;;22.80;54.50;;;;;;5082090;28;20028;-67
2020/12/10 02:06:28;;;;;;;10.02;2.35;;;22.80;54.40;;;;;;5086542;28;20020;-67
2020/12/10 02:08:55;;;;;;;6.35;2.13;;;22.90;54.50;;;;;;5082580;28;20024;-65
2020/12/10 02:11:24;;;;;;;7.30;2.78;;;22.90;54.40;;;;;;5085777;28;20058;-67
2020/12/10 02:13:51;;;;;;;8.13;2.83;;;22.90;54.30;;;;;;5081363;28;20032;-66
2020/12/10 02:16:18;;;;;;;4.47;1.85;;;22.90;54.40;;;;;;5085076;28;20051;-67
2020/12/10 02:18:45;;;;;;;9.02;3.15;;;22.90;54.30;;;;;;5082984;28;20031;-66
2020/12/10 02:21:13;;;;;;;3.42;1.90;;;22.90;54.40;;;;;;5083569;28;20066;-66
2020/12/10 02:23:40;;;;;;;4.78;2.10;;;23.00;54.40;;;;;;5082894;28;20457;-66
2020/12/10 02:26:07;;;;;;;4.93;1.98;;;23.00;54.40;;;;;;5085909;28;20024;-64
2020/12/10 02:28:34;;;;;;;6.35;2.50;;;23.00;54.40;;;;;;5084042;28;20495;-69
2020/12/10 02:31:01;;;;;;;8.27;2.15;;;23.00;54.50;;;;;;5066609;28;20073;-69
2020/12/10 02:33:28;;;;;;;3.92;1.65;;;23.00;54.40;;;;;;5067041;28;20900;-69
2020/12/10 02:35:55;;;;;;;6.45;2.88;;;23.00;54.40;;;;;;5085012;28;20016;-66
2020/12/10 02:38:22;;;;;;;6.25;2.05;;;23.00;54.30;;;;;;5087588;28;20024;-68
2020/12/10 02:40:49;;;;;;;4.25;1.95;;;23.00;54.10;;;;;;5084667;28;20472;-74
2020/12/10 02:43:16;;;;;;;7.22;1.90;;;23.00;54.20;;;;;;5067863;28;20121;-68
2020/12/10 02:45:43;;;;;;;5.93;1.90;;;23.00;54.20;;;;;;5065336;28;20020;-73
2020/12/10 02:48:11;;;;;;;8.10;2.53;;;23.00;54.20;;;;;;5087075;28;20038;-72
2020/12/10 02:50:38;;;;;;;6.72;2.33;;;23.10;54.30;;;;;;5080982;28;20256;-71
2020/12/10 02:53:07;;;;;;;4.45;1.90;;;23.10;54.40;;;;;;5083316;28;20036;-64
2020/12/10 02:55:35;;;;;;;4.07;1.67;;;23.10;54.40;;;;;;5078578;28;20081;-70
2020/12/10 02:58:02;;;;;;;4.07;1.67;;;23.20;55.10;;;;;;5081370;28;20481;-68
2020/12/10 03:00:30;;;;;;;4.63;1.58;;;23.30;55.40;;;;;;5043346;28;20415;-73
2020/12/10 03:02:57;;;;;;;4.55;1.80;;;23.40;55.40;;;;;;5079205;28;20032;-73
2020/12/10 03:05:24;;;;;;;8.90;1.98;;;23.50;55.40;;;;;;5079545;28;20236;-65
2020/12/10 03:07:51;;;;;;;5.50;2.10;;;23.60;55.40;;;;;;5080246;28;20032;-71
2020/12/10 03:10:18;;;;;;;4.88;1.55;;;23.80;55.30;;;;;;5077648;28;20036;-70
2020/12/10 03:12:45;;;;;;;3.90;1.60;;;23.80;55.10;;;;;;5082231;28;20035;-71
2020/12/10 03:15:14;;;;;;;3.70;1.65;;;23.90;56.00;;;;;;5082271;28;20400;-73
2020/12/10 03:17:42;;;;;;;3.60;1.50;;;24.00;55.30;;;;;;5080544;28;20374;-74
2020/12/10 03:20:09;;;;;;;3.10;1.75;;;24.20;55.10;;;;;;5082939;28;20032;-75
2020/12/10 03:22:35;;;;;;;1.48;1.05;;;24.20;55.00;;;;;;5078539;28;20032;-71
2020/12/10 03:25:03;;;;;;;2.20;1.23;;;24.30;55.00;;;;;;5060506;28;20050;-72
2020/12/10 03:27:30;;;;;;;3.30;1.13;;;24.40;55.10;;;;;;5078289;28;20032;-75
2020/12/10 03:29:57;;;;;;;2.63;1.58;;;24.40;54.90;;;;;;5079558;28;20401;-76
2020/12/10 03:32:24;;;;;;;5.65;1.63;;;24.50;54.90;;;;;;5079329;28;20040;-75
2020/12/10 03:34:51;;;;;;;5.25;1.38;;;24.60;54.90;;;;;;5080515;28;20027;-71
2020/12/10 03:37:18;;;;;;;5.13;1.67;;;24.60;54.80;;;;;;5075825;27;20032;-71
2020/12/10 03:39:46;;;;;;;2.80;1.60;;;24.70;54.70;;;;;;5078754;28;20055;-73
2020/12/10 03:42:13;;;;;;;5.57;1.80;;;24.80;54.70;;;;;;5076008;28;20400;-71
2020/12/10 03:44:40;;;;;;;3.42;1.42;;;24.80;54.50;;;;;;5079343;28;20031;-72
2020/12/10 03:47:07;;;;;;;3.63;1.80;;;24.90;54.40;;;;;;5076798;28;20122;-74
2020/12/10 03:49:34;;;;;;;5.95;2.05;;;25.00;54.50;;;;;;5080289;28;20032;-70
2020/12/10 03:52:01;;;;;;;3.83;1.25;;;25.00;52.60;;;;;;5078602;28;20032;-70
2020/12/10 03:54:28;;;;;;;6.75;1.95;;;24.90;51.90;;;;;;5080003;28;20028;-77
2020/12/10 03:56:58;;;;;;;5.55;1.80;;;24.80;51.90;;;;;;5083097;28;20081;-68
2020/12/10 03:59:25;;;;;;;4.30;1.67;;;24.60;51.60;;;;;;5078030;28;20066;-65
2020/12/10 04:01:52;;;;;;;7.20;1.88;;;24.60;52.00;;;;;;5078960;28;20024;-72
2020/12/10 04:04:19;;;;;;;3.10;1.23;;;24.60;52.40;;;;;;5079121;28;20028;-71
2020/12/10 04:06:46;;;;;;;3.45;1.20;;;24.70;52.70;;;;;;5080629;28;20025;-72
2020/12/10 04:09:14;;;;;;;3.50;1.73;;;24.80;52.50;;;;;;5074870;28;20349;-66
2020/12/10 04:11:41;;;;;;;3.53;1.73;;;24.90;52.70;;;;;;5079771;28;20483;-66
2020/12/10 04:14:09;;;;;;;3.70;1.52;;;25.00;53.00;;;;;;5075701;28;20020;-67
2020/12/10 04:16:37;;;;;;;2.42;1.27;;;25.10;52.80;;;;;;5078548;28;20024;-76
2020/12/10 04:19:05;;;;;;;3.25;1.42;;;25.10;52.50;;;;;;5076371;28;20020;-64
2020/12/10 04:21:32;;;;;;;3.30;1.35;;;25.20;52.50;;;;;;5060342;28;20272;-65
2020/12/10 04:23:59;;;;;;;3.42;1.20;;;25.20;52.50;;;;;;5075542;28;20291;-64
2020/12/10 04:26:26;;;;;;;2.30;1.30;;;25.40;52.70;;;;;;5059131;28;20032;-65
2020/12/10 04:28:53;;;;;;;3.20;1.38;;;25.40;52.20;;;;;;5056907;28;20024;-74
2020/12/10 04:31:20;;;;;;;2.55;1.33;;;25.40;52.40;;;;;;5078196;28;20040;-70
2020/12/10 04:33:47;;;;;;;3.28;1.40;;;25.50;52.40;;;;;;5075003;28;20590;-71
2020/12/10 04:36:14;;;;;;;2.65;1.55;;;25.50;52.30;;;;;;5077863;28;20483;-71
2020/12/10 04:38:41;;;;;;;2.47;1.23;;;25.60;52.30;;;;;;5076760;28;20085;-66
2020/12/10 04:41:08;;;;;;;3.67;1.13;;;25.60;52.20;;;;;;5078005;28;20032;-74
2020/12/10 04:43:35;;;;;;;2.88;1.40;;;25.70;52.30;;;;;;5077035;28;20032;-74
2020/12/10 04:46:06;;;;;;;3.08;1.40;;;25.70;52.40;;;;;;5076993;28;20383;-63
2020/12/10 04:48:34;;;;;;;7.10;2.15;;;25.80;52.20;;;;;;5063671;28;20090;-63
2020/12/10 04:51:05;;;;;;;4.05;2.05;;;25.40;47.30;;;;;;5077805;28;20126;-76
2020/12/10 04:53:32;;;;;;;9.10;2.47;;;25.10;45.30;;;;;;5080992;28;20032;-74
2020/12/10 04:56:05;;;;;;;15.48;3.17;;;24.40;45.20;;;;;;5078690;28;20040;-63
2020/12/10 04:58:32;;;;;;;5.60;1.98;;;24.10;43.70;;;;;;5081242;28;20039;-72
2020/12/10 05:01:01;;;;;;;5.28;2.05;;;23.60;44.90;;;;;;5075955;28;20027;-73
2020/12/10 05:03:29;;;;;;;10.25;2.08;;;23.10;44.60;;;;;;5081069;28;20515;-72
2020/12/10 05:06:17;;;;;;;8.70;2.47;;;23.00;44.30;;;;;;5077640;28;20042;-64
2020/12/10 05:08:45;;;;;;;6.25;1.77;;;23.20;44.40;;;;;;5080490;28;20046;-75
2020/12/10 05:11:12;;;;;;;6.32;1.63;;;23.20;44.70;;;;;;5077400;28;20462;-76
2020/12/10 05:13:52;;;;;;;5.18;1.63;;;23.40;43.80;;;;;;5061174;28;20028;-75
2020/12/10 05:16:22;;;;;;;7.15;1.90;;;23.50;43.80;;;;;;5075393;28;20028;-73
2020/12/10 05:18:50;;;;;;;5.93;1.90;;;23.50;43.20;;;;;;5078685;28;20032;-73
2020/12/10 05:21:17;;;;;;;4.75;1.67;;;23.50;43.30;;;;;;5077420;28;20276;-64
2020/12/10 05:23:44;;;;;;;5.30;1.60;;;23.30;41.90;;;;;;5079713;28;20032;-73
2020/12/10 05:26:11;;;;;;;5.85;2.05;;;22.80;41.80;;;;;;5080661;28;20040;-72
2020/12/10 05:28:50;;;;;;;7.90;2.13;;;22.60;42.30;;;;;;5082415;28;20176;-72
2020/12/10 05:31:21;;;;;;;5.97;1.92;;;22.60;42.60;;;;;;5077763;28;20048;-73
2020/12/10 05:33:52;;;;;;;7.05;1.77;;;22.00;42.30;;;;;;5080829;28;20020;-74
2020/12/10 05:36:19;;;;;;;8.80;1.30;;;22.10;43.20;;;;;;5079491;28;20039;-63
2020/12/10 05:39:07;;;;;;;6.18;1.73;;;22.10;42.50;;;;;;5084556;28;20244;-70
2020/12/10 05:41:39;;;;;;;7.00;1.50;;;21.80;41.80;;;;;;5077487;28;20035;-66
2020/12/10 05:44:24;;;;;;;6.25;1.90;;;21.60;42.70;;;;;;5077960;28;20056;-75
2020/12/10 05:47:02;;;;;;;8.98;1.63;;;21.70;42.30;;;;;;5075974;28;21167;-73
2020/12/10 05:49:29;;;;;;;3.25;1.38;;;21.70;42.70;;;;;;5078386;28;20039;-74
2020/12/10 05:52:03;;;;;;;6.53;2.03;;;21.80;42.50;;;;;;5076619;28;20479;-69
2020/12/10 05:54:34;;;;;;;5.15;1.65;;;21.90;41.80;;;;;;5079651;28;20415;-71
2020/12/10 05:57:04;;;;;;;6.00;1.70;;;21.80;41.70;;;;;;5077018;28;20032;-64
2020/12/10 05:59:33;;;;;;;8.40;1.83;;;21.80;42.50;;;;;;5061815;28;20028;-70
2020/12/10 06:02:05;;;;;;;4.72;1.60;;;21.60;41.60;;;;;;5076580;28;20035;-73
2020/12/10 06:04:32;;;;;;;9.27;1.80;;;21.60;42.20;;;;;;5079202;28;20024;-74
2020/12/10 06:07:01;;;;;;;7.20;2.15;;;21.70;43.10;;;;;;5078670;28;20024;-70
2020/12/10 06:09:29;;;;;;;4.38;1.55;;;21.60;42.50;;;;;;5077622;28;20035;-71
2020/12/10 06:12:03;;;;;;;5.85;1.70;;;21.60;42.60;;;;;;5078359;28;20032;-64
2020/12/10 06:14:30;;;;;;;8.77;1.60;;;21.70;42.00;;;;;;5076305;28;20036;-64
2020/12/10 06:17:10;;;;;;;4.32;1.48;;;21.70;41.90;;;;;;5060120;28;20024;-73
2020/12/10 06:19:38;;;;;;;6.18;2.45;;;21.60;42.30;;;;;;5077048;28;20570;-63
2020/12/10 06:22:31;;;;;;;8.93;2.03;;;21.40;43.00;;;;;;5077311;28;20090;-73
2020/12/10 06:24:59;;;;;;;9.88;2.05;;;21.50;42.80;;;;;;5074913;28;20032;-63
2020/12/10 06:27:33;;;;;;;6.47;1.90;;;21.40;42.90;;;;;;5079717;28;20468;-73
2020/12/10 06:30:20;;;;;;;10.10;1.98;;;21.30;41.70;;;;;;5076456;28;20118;-73
2020/12/10 06:32:48;;;;;;;9.98;2.08;;;21.30;42.00;;;;;;5079584;28;20036;-73
2020/12/10 06:35:35;;;;;;;6.40;2.05;;;21.20;42.50;;;;;;5075302;28;20414;-63
2020/12/10 06:38:06;;;;;;;7.53;1.88;;;21.30;42.90;;;;;;5077881;28;20076;-73
2020/12/10 06:40:41;;;;;;;9.38;2.00;;;21.50;42.20;;;;;;5075905;28;20036;-63
2020/12/10 06:43:10;;;;;;;10.98;2.17;;;21.30;42.10;;;;;;5079098;28;20403;-63
2020/12/10 06:45:39;;;;;;;18.42;3.75;;;21.20;41.00;;;;;;5075231;28;20028;-63
2020/12/10 06:48:19;;;;;;;4.50;1.80;;;21.00;42.00;;;;;;5078817;28;20566;-63
2020/12/10 06:50:46;;;;;;;5.40;1.90;;;20.80;42.00;;;;;;5076502;28;20035;-74
2020/12/10 06:53:16;;;;;;;4.15;1.80;;;20.90;43.10;;;;;;5060109;28;20466;-71
2020/12/10 06:56:02;;;;;;;8.40;2.10;;;21.00;42.70;;;;;;5076469;28;20024;-72
2020/12/10 06:58:35;;;;;;;8.15;1.63;;;20.90;42.90;;;;;;5080603;28;21010;-63
2020/12/10 07:01:24;;;;;;;6.20;1.52;;;20.90;42.70;;;;;;5076523;28;20484;-61
2020/12/10 07:03:56;;;;;;;6.32;1.65;;;20.80;42.30;;;;;;5078923;28;20085;-73
2020/12/10 07:06:22;;;;;;;;;;;20.60;42.10;;;;;;5076362;28;20034;-62
2020/12/10 07:09:13;;;;;;;6.05;1.92;;;20.60;42.30;;;;;;5078738;28;19979;-62
2020/12/10 07:11:42;;;;;;;6.13;1.60;;;20.40;42.70;;;;;;5075141;28;20576;-62
2020/12/10 07:14:26;;;;;;;13.77;2.55;;;20.40;42.60;;;;;;5077465;28;20024;-71
2020/12/10 07:16:55;;;;;;;7.22;1.83;;;20.30;44.30;;;;;;5075651;28;20024;-62
2020/12/10 07:19:23;;;;;;;7.63;2.03;;;20.40;43.50;;;;;;5078114;28;20047;-70
2020/12/10 07:21:50;;;;;;;6.10;1.48;;;20.40;43.30;;;;;;5076236;28;20031;-70
2020/12/10 07:24:17;;;;;;;6.28;1.65;;;20.30;43.40;;;;;;5078272;28;20039;-71
2020/12/10 07:26:44;;;;;;;8.35;1.88;;;20.30;43.40;;;;;;5075211;28;20150;-71
2020/12/10 07:29:13;;;;;;;5.95;1.58;;;20.10;43.10;;;;;;5077419;28;20042;-73
2020/12/10 07:31:42;;;;;;;8.68;1.63;;;20.20;44.40;;;;;;5074366;28;20055;-73
2020/12/10 07:34:12;;;;;;;9.40;2.05;;;20.20;43.60;;;;;;5079307;28;20142;-74
2020/12/10 07:36:51;;;;;;;7.85;1.95;;;20.10;43.40;;;;;;5075365;28;20036;-62
2020/12/10 07:39:33;;;;;;;5.28;1.95;;;20.00;43.90;;;;;;5080368;28;20031;-73
2020/12/10 07:42:04;;;;;;;4.80;1.80;;;20.20;45.20;;;;;;5077367;28;20020;-74
2020/12/10 07:44:34;;;;;;;8.45;1.98;;;20.40;43.90;;;;;;5077911;28;20060;-76
2020/12/10 07:47:09;;;;;;;6.55;2.13;;;20.30;43.20;;;;;;5074490;28;20129;-73
2020/12/10 07:49:36;;;;;;;22.67;12.95;;;20.40;44.00;;;;;;5078709;28;20426;-74
2020/12/10 07:52:09;;;;;;;43.47;27.15;;;20.50;44.20;;;;;;5075874;28;20100;-63
2020/12/10 07:54:46;;;;;;;38.20;19.10;;;20.30;43.40;;;;;;5078851;28;20031;-63
2020/12/10 07:57:39;;;;;;;41.15;22.08;;;20.10;44.90;;;;;;5075769;28;20024;-63
2020/12/10 08:00:13;;;;;;;37.08;21.00;;;20.10;44.90;;;;;;5078318;28;20032;-73
2020/12/10 08:03:18;;;;;;;42.42;19.58;;;19.80;45.70;;;;;;5072980;28;20415;-74
2020/12/10 08:06:03;;;;;;;41.25;25.55;;;19.80;45.70;;;;;;5076372;28;20151;-64
2020/12/10 08:08:34;;;;;;;35.45;20.08;;;19.60;46.00;;;;;;5076336;28;20027;-63
2020/12/10 08:11:16;;;;;;;29.60;15.63;;;19.50;46.90;;;;;;5058821;28;20023;-74
2020/12/10 08:13:56;;;;;;;29.73;17.38;;;19.40;47.30;;;;;;5075057;28;20385;-74
2020/12/10 08:16:24;;;;;;;25.35;13.07;;;19.40;47.40;;;;;;5077090;28;20494;-74
2020/12/10 08:18:51;;;;;;;32.42;18.00;;;19.40;47.90;;;;;;5054150;28;20040;-75
2020/12/10 08:21:32;;;;;;;21.23;9.55;;;19.30;47.30;;;;;;5079342;28;20035;-75
2020/12/10 08:23:59;;;;;;;24.15;12.55;;;19.40;47.90;;;;;;5079133;28;20551;-63
2020/12/10 08:26:26;;;;;;;13.88;6.63;;;19.70;47.90;;;;;;5083175;28;20040;-74
2020/12/10 08:28:55;;;;;;;13.98;7.65;;;19.80;46.10;;;;;;5079303;28;20030;-75
2020/12/10 08:31:26;;;;;;;12.75;6.10;;;19.80;46.40;;;;;;5085766;28;20032;-74
2020/12/10 08:33:53;;;;;;;;;;;19.90;45.40;;;;;;5082222;28;20034;-75
2020/12/10 08:36:33;;;;;;;14.02;7.18;;;19.90;45.60;;;;;;5060573;28;19916;-63
2020/12/10 08:39:05;;;;;;;15.65;6.85;;;19.80;46.10;;;;;;5080297;28;20030;-73
2020/12/10 08:41:36;;;;;;;13.48;6.65;;;19.60;45.90;;;;;;5086840;28;20066;-74
2020/12/10 08:44:06;;;;;;;11.43;6.63;;;19.20;47.20;;;;;;5086588;28;20024;-75
2020/12/10 08:46:36;;;;;;;19.42;8.43;;;18.90;47.90;;;;;;5085254;28;20036;-74
2020/12/10 08:49:21;;;;;;;13.05;6.90;;;18.80;49.10;;;;;;5080112;28;20028;-71
2020/12/10 08:51:50;;;;;;;13.07;6.43;;;18.80;49.20;;;;;;5085455;28;20051;-73
2020/12/10 08:54:17;;;;;;;15.20;3.75;;;19.00;48.90;;;;;;5057007;28;20066;-61
2020/12/10 08:56:45;;;;;;;18.33;6.22;;;18.70;48.10;;;;;;5082730;28;20020;-63
2020/12/10 08:59:12;;;;;;;12.00;4.32;;;18.70;49.20;;;;;;5078248;28;20527;-63
2020/12/10 09:01:52;;;;;;;10.02;3.45;;;18.30;49.90;;;;;;5079652;28;20040;-72
2020/12/10 09:04:19;;;;;;;24.45;4.88;;;17.90;51.00;;;;;;5078065;28;20032;-71
2020/12/10 09:06:47;;;;;;;9.70;3.30;;;18.00;51.50;;;;;;5081715;28;20450;-72
2020/12/10 09:09:14;;;;;;;14.68;3.40;;;17.90;51.10;;;;;;5076599;28;20024;-72
2020/12/10 09:11:46;;;;;;;17.10;3.65;;;17.80;51.10;;;;;;5078744;28;20036;-62
2020/12/10 09:14:13;;;;;;;8.93;3.05;;;17.70;51.20;;;;;;5079453;28;20028;-62
2020/12/10 09:16:40;;;;;;;13.43;3.72;;;17.80;51.90;;;;;;5077551;28;20259;-71
2020/12/10 09:19:08;;;;;;;9.45;3.05;;;17.80;51.40;;;;;;5079101;28;20058;-63
2020/12/10 09:21:36;;;;;;;7.50;2.33;;;17.80;51.10;;;;;;5077757;28;20106;-63
2020/12/10 09:24:03;;;;;;;9.65;3.75;;;17.70;51.10;;;;;;5079798;28;20055;-62
2020/12/10 09:26:31;;;;;;;11.57;2.97;;;17.50;51.60;;;;;;5074981;28;20062;-63
2020/12/10 09:28:58;;;;;;;7.88;2.67;;;17.40;52.40;;;;;;5078413;28;20228;-72
2020/12/10 09:31:25;;;;;;;12.55;2.80;;;17.70;51.60;;;;;;5076439;28;20066;-71
2020/12/10 09:33:52;;;;;;;10.68;2.95;;;17.50;52.10;;;;;;5080168;28;20028;-72
2020/12/10 09:36:19;;;;;;;7.90;2.10;;;17.70;52.10;;;;;;5076591;28;20117;-63
2020/12/10 09:38:46;;;;;;;7.50;2.45;;;17.60;51.50;;;;;;5077685;28;20028;-63
2020/12/10 09:41:13;;;;;;;9.18;2.60;;;17.40;52.00;;;;;;5075570;28;20031;-74
2020/12/10 09:43:40;;;;;;;8.88;2.35;;;17.30;51.90;;;;;;5076932;28;20465;-64
2020/12/10 09:46:12;;;;;;;8.85;2.75;;;17.20;52.30;;;;;;5075575;28;20459;-63
2020/12/10 09:48:40;;;;;;;10.82;2.65;;;17.10;52.90;;;;;;5078671;28;20074;-63
2020/12/10 09:51:08;;;;;;;12.30;2.70;;;17.00;53.40;;;;;;5077239;28;20475;-77
2020/12/10 09:58:38;;;;;;;6.63;2.63;;;17.20;53.30;;;;;;5079379;28;20111;-74
2020/12/10 10:01:11;;;;;;;8.85;2.53;;;17.00;53.50;;;;;;5076407;28;20034;-75
2020/12/10 10:03:38;;;;;;;9.20;2.97;;;16.90;54.30;;;;;;5078499;28;20055;-74
2020/12/10 10:06:09;;;;;;;8.10;2.35;;;17.00;53.90;;;;;;5080435;28;20384;-64
2020/12/10 10:08:36;;;;;;;11.10;3.00;;;17.00;54.30;;;;;;5054173;28;20476;-74
2020/12/10 10:11:03;;;;;;;9.02;2.50;;;16.90;54.50;;;;;;5077983;28;20524;-75
2020/12/10 10:13:31;;;;;;;10.82;2.35;;;16.70;54.30;;;;;;5077103;28;20447;-77
2020/12/10 10:15:58;;;;;;;9.85;2.92;;;16.60;54.40;;;;;;5078459;28;20511;-76
2020/12/10 10:18:25;;;;;;;13.05;2.58;;;16.40;55.20;;;;;;5074224;28;20028;-75
2020/12/10 10:20:53;;;;;;;9.57;2.58;;;16.40;55.20;;;;;;5079241;28;20082;-74
2020/12/10 10:23:19;;;;;;;9.77;2.60;;;16.40;55.40;;;;;;5074552;28;20051;-62
2020/12/10 10:25:47;;;;;;;9.35;2.30;;;16.20;56.00;;;;;;5077894;28;20127;-75
2020/12/10 10:28:15;;;;;;;8.23;2.70;;;16.10;56.00;;;;;;5075684;28;20028;-75
2020/12/10 10:30:42;;;;;;;12.57;2.90;;;16.10;56.50;;;;;;5078524;28;20031;-74
2020/12/10 10:33:09;;;;;;;13.90;3.38;;;16.10;56.50;;;;;;5074460;28;20055;-74
2020/12/10 10:35:37;;;;;;;9.57;2.50;;;15.90;56.70;;;;;;5057453;28;20269;-74
2020/12/10 10:38:04;;;;;;;10.40;2.60;;;15.80;57.50;;;;;;5062748;28;20050;-75
2020/12/10 10:40:31;;;;;;;13.30;2.85;;;15.70;57.60;;;;;;5078912;28;20044;-76
2020/12/10 10:42:58;;;;;;;11.32;2.80;;;15.70;57.70;;;;;;5075536;28;20032;-76
2020/12/10 10:45:25;;;;;;;9.35;3.05;;;15.70;57.70;;;;;;5077014;28;20055;-75
2020/12/10 10:47:53;;;;;;;6.72;2.25;;;15.80;57.90;;;;;;5078043;28;20031;-63
2020/12/10 10:50:20;;;;;;;12.40;2.75;;;15.70;57.50;;;;;;5058658;28;20051;-75
2020/12/10 10:52:47;;;;;;;12.90;2.38;;;15.60;58.60;;;;;;5078835;28;20115;-75
2020/12/10 10:55:14;;;;;;;12.18;2.30;;;15.50;58.40;;;;;;5077405;28;20028;-75
2020/12/10 10:57:41;;;;;;;10.75;2.70;;;15.50;58.80;;;;;;5078479;28;20400;-75
2020/12/10 11:00:08;;;;;;;11.73;3.60;;;15.30;59.30;;;;;;5057098;28;20384;-76
2020/12/10 11:02:35;;;;;;;14.55;2.40;;;15.30;59.50;;;;;;5076924;28;20024;-74
2020/12/10 11:05:02;;;;;;;20.50;3.47;;;15.30;59.80;;;;;;5055088;28;20438;-65
2020/12/10 11:07:30;;;;;;;12.52;2.83;;;15.10;60.00;;;;;;5058410;28;20523;-76
2020/12/10 11:09:57;;;;;;;11.35;2.38;;;15.10;60.30;;;;;;5076617;28;20023;-76
2020/12/10 11:12:27;;;;;;;14.50;3.20;;;15.10;60.20;;;;;;5077854;28;20094;-73
2020/12/10 11:14:54;;;;;;;11.85;2.38;;;15.00;60.40;;;;;;5076306;28;20051;-67
2020/12/10 11:17:21;;;;;;;13.68;3.08;;;15.00;61.30;;;;;;5078165;28;20038;-63
2020/12/10 11:19:49;;;;;;;9.18;3.30;;;15.60;60.60;;;;;;5076467;28;20455;-63
2020/12/10 11:22:16;;;;;;;9.70;2.70;;;16.10;59.50;;;;;;5060309;28;20051;-64
2020/12/10 11:24:43;;;;;;;8.00;2.22;;;16.40;59.20;;;;;;5055438;28;20062;-64
2020/12/10 11:27:10;;;;;;;11.75;2.55;;;16.50;58.10;;;;;;5077689;28;20097;-64
2020/12/10 11:29:37;;;;;;;11.15;2.65;;;16.70;57.50;;;;;;5075671;28;20028;-63
2020/12/10 11:32:04;;;;;;;7.43;2.55;;;16.70;57.20;;;;;;5078242;28;20143;-64
2020/12/10 11:34:31;;;;;;;7.28;2.95;;;16.60;57.40;;;;;;5078605;28;20024;-64
2020/12/10 11:36:58;;;;;;;6.35;2.10;;;16.70;56.50;;;;;;5074571;28;20064;-64
2020/12/10 11:39:25;;;;;;;6.78;2.05;;;16.80;57.30;;;;;;5076576;28;20017;-64
2020/12/10 11:41:53;;;;;;;8.20;2.97;;;16.80;56.40;;;;;;5074103;28;20236;-64
2020/12/10 11:44:20;;;;;;;9.45;2.60;;;16.90;56.30;;;;;;5078731;28;20083;-64
2020/12/10 11:46:48;;;;;;;11.90;2.47;;;16.80;56.00;;;;;;5055281;28;20028;-64
2020/12/10 11:49:15;;;;;;;9.10;2.53;;;16.80;56.40;;;;;;5079500;28;20393;-64
2020/12/10 11:51:42;;;;;;;8.55;2.20;;;16.80;56.30;;;;;;5075348;28;20024;-65
2020/12/10 11:54:10;;;;;;;16.30;2.75;;;16.80;56.40;;;;;;5077994;28;20086;-66
2020/12/10 11:56:40;;;;;;;12.43;2.47;;;16.70;56.30;;;;;;5078905;28;20048;-65
2020/12/10 11:59:07;;;;;;;7.43;2.53;;;16.80;56.30;;;;;;5081617;28;20040;-65
2020/12/10 12:01:40;;;;;;;8.27;2.42;;;16.80;55.60;;;;;;5078984;28;20071;-65
2020/12/10 12:04:07;;;;;;;6.32;2.38;;;16.70;55.60;;;;;;5080900;28;20764;-65
2020/12/10 12:06:34;;;;;;;8.80;2.22;;;16.60;55.30;;;;;;5079804;28;20031;-65
2020/12/10 12:09:02;;;;;;;6.18;1.90;;;16.60;55.90;;;;;;5081483;28;20031;-66
2020/12/10 12:11:29;;;;;;;10.70;2.70;;;16.60;56.30;;;;;;5079407;28;20036;-64
2020/12/10 12:13:56;;;;;;;7.43;2.55;;;16.70;56.50;;;;;;5062495;28;20454;-65
2020/12/10 12:16:23;;;;;;;10.35;2.38;;;16.60;55.80;;;;;;5061373;28;20280;-64
2020/12/10 12:18:50;;;;;;;10.60;2.67;;;16.60;55.30;;;;;;5063456;28;20028;-65
2020/12/10 12:21:25;;;;;;;8.75;2.22;;;16.50;56.40;;;;;;5080921;28;20127;-64
2020/12/10 12:23:52;;;;;;;13.10;2.80;;;16.50;56.30;;;;;;5078453;28;20363;-65
2020/12/10 12:26:27;;;;;;;7.32;2.33;;;16.50;56.30;;;;;;5080514;28;20020;-64
2020/12/10 12:28:54;;;;;;;6.53;1.88;;;16.50;56.00;;;;;;5078239;28;20408;-64
2020/12/10 12:31:28;;;;;;;6.93;1.95;;;16.50;56.40;;;;;;5078633;28;20359;-64
2020/12/10 12:33:55;;;;;;;8.75;2.15;;;16.50;56.40;;;;;;5058607;28;20436;-64
2020/12/10 12:36:22;;;;;;;8.32;2.45;;;16.50;55.70;;;;;;5080800;28;20511;-64
2020/12/10 12:38:50;;;;;;;10.65;2.88;;;16.50;56.40;;;;;;5077752;28;20032;-64
2020/12/10 12:41:17;;;;;;;8.38;2.25;;;16.40;56.30;;;;;;5081255;28;20084;-64
2020/12/10 12:43:44;;;;;;;9.40;2.50;;;16.40;56.40;;;;;;5077979;28;20269;-65
2020/12/10 12:46:11;;;;;;;9.48;2.22;;;16.40;56.20;;;;;;5080308;28;20024;-65
2020/12/10 12:48:38;;;;;;;13.40;2.60;;;16.40;56.70;;;;;;5077783;27;20042;-65
2020/12/10 12:51:05;;;;;;;4.47;2.10;;;16.40;56.30;;;;;;5082265;28;20059;-65
2020/12/10 12:53:32;;;;;;;10.48;2.92;;;16.30;57.20;;;;;;5078935;28;20028;-65
2020/12/10 12:55:59;;;;;;;11.25;2.33;;;16.40;56.80;;;;;;5081872;28;20504;-64
2020/12/10 12:58:26;;;;;;;8.73;2.17;;;16.20;56.60;;;;;;5077173;28;20476;-64
2020/12/10 13:00:56;;;;;;;6.47;2.33;;;16.20;56.20;;;;;;5061902;28;20043;-65